Alert, Canada
Current Conditions -  °F | °C
As of 1:00 PM on Tuesday 27 Jan 2015 (Local Time) from CWEU Reporting Station
Few Clouds Few Clouds  
Wind Chill: -49°   Ceiling: Unl
Heat Index: -36°   Visibility: 15mi
Dew Point: -40°   Wind: 10mph
Humidity: 68%   Direction: 140°SE
Pressure: 29.41"   Gusts: NA
Location:  82.47°N, 62.5°W
Report Text: CWEU 271800Z 14009KT 15SM FEW100 M36/M40 A2941 RMK AC1 SLP961
Loading
Personal Weather Stations






























Interactive Weather Map New forecast layout! Learn more

10-Day Weather Forecast

Advertisements
Track Severe Weather on mobile